createdAt,value
2022-11-15T00:00:48.645Z,19.28
2022-11-15T00:01:48.614Z,19.30
2022-11-15T00:02:48.584Z,19.26
2022-11-15T00:03:48.579Z,19.19
2022-11-15T00:04:48.554Z,19.17
2022-11-15T00:05:48.547Z,19.12
2022-11-15T00:06:48.564Z,19.07
2022-11-15T00:07:55.794Z,19.09
2022-11-15T00:08:49.529Z,19.14
2022-11-15T00:09:48.503Z,19.16
2022-11-15T00:10:48.488Z,19.16
2022-11-15T00:11:48.507Z,19.10
2022-11-15T00:12:48.465Z,19.16
2022-11-15T00:13:48.450Z,19.05
2022-11-15T00:14:48.455Z,19.09
2022-11-15T00:15:48.439Z,19.05
2022-11-15T00:16:48.431Z,19.00
2022-11-15T00:17:48.426Z,18.95
2022-11-15T00:18:50.908Z,18.92
2022-11-15T00:19:48.392Z,18.88
2022-11-15T00:20:48.386Z,18.88
2022-11-15T00:21:48.356Z,18.81
2022-11-15T00:22:48.343Z,18.78
2022-11-15T00:23:48.334Z,18.70
2022-11-15T00:24:48.319Z,18.68
2022-11-15T00:25:48.317Z,18.61
2022-11-15T00:26:48.319Z,18.58
2022-11-15T00:27:48.285Z,18.57
2022-11-15T00:28:48.283Z,18.55
2022-11-15T00:29:48.260Z,18.48
2022-11-15T00:30:48.251Z,18.53
2022-11-15T00:31:48.263Z,18.51
2022-11-15T00:32:48.228Z,18.48
2022-11-15T00:33:48.213Z,18.48
2022-11-15T00:34:48.207Z,18.47
2022-11-15T00:35:48.189Z,18.45
2022-11-15T00:36:48.186Z,18.51
2022-11-15T00:37:48.187Z,18.45
2022-11-15T00:38:48.158Z,18.50
2022-11-15T00:39:48.149Z,18.48
2022-11-15T00:40:48.145Z,18.50
2022-11-15T00:41:48.124Z,18.50
2022-11-15T00:42:48.119Z,18.50
2022-11-15T00:43:48.110Z,18.47
2022-11-15T00:44:48.092Z,18.47
2022-11-15T00:45:48.073Z,18.48
2022-11-15T00:46:48.062Z,18.53
2022-11-15T00:47:48.056Z,18.48
2022-11-15T00:48:48.058Z,18.55
2022-11-15T00:49:48.027Z,18.50
2022-11-15T00:50:48.021Z,18.53
2022-11-15T00:51:48.012Z,18.50
2022-11-15T00:52:47.998Z,18.51
2022-11-15T00:53:47.988Z,18.50
2022-11-15T00:54:47.997Z,18.47
2022-11-15T00:55:47.959Z,18.47
2022-11-15T00:56:47.958Z,18.51
2022-11-15T00:57:47.943Z,18.51
2022-11-15T00:58:47.929Z,18.48
2022-11-15T00:59:47.915Z,18.47
2022-11-15T01:00:47.975Z,18.43
2022-11-15T01:01:47.900Z,18.43
2022-11-15T01:02:47.879Z,18.43
2022-11-15T01:03:47.884Z,18.40
2022-11-15T01:04:47.873Z,18.39
2022-11-15T01:05:47.864Z,18.45
2022-11-15T01:06:47.925Z,18.37
2022-11-15T01:07:47.845Z,18.47
2022-11-15T01:08:47.850Z,18.39
2022-11-15T01:09:47.803Z,18.39
2022-11-15T01:10:47.806Z,18.47
2022-11-15T01:11:47.784Z,18.48
2022-11-15T01:12:47.815Z,18.47
2022-11-15T01:13:47.778Z,18.53
2022-11-15T01:14:47.753Z,18.48
2022-11-15T01:15:47.735Z,18.51
2022-11-15T01:16:47.736Z,18.55
2022-11-15T01:17:47.744Z,18.53
2022-11-15T01:18:47.721Z,18.51
2022-11-15T01:19:47.680Z,18.57
2022-11-15T01:20:47.682Z,18.57
2022-11-15T01:21:47.672Z,18.58
2022-11-15T01:22:47.680Z,18.50
2022-11-15T01:23:47.639Z,18.55
2022-11-15T01:24:47.631Z,18.53
2022-11-15T01:25:47.612Z,18.51
2022-11-15T01:26:47.611Z,18.55
2022-11-15T01:27:47.591Z,18.51
2022-11-15T01:28:47.596Z,18.57
2022-11-15T01:29:47.559Z,18.51
2022-11-15T01:30:47.567Z,18.53
2022-11-15T01:31:47.544Z,18.55
2022-11-15T01:32:47.533Z,18.48
2022-11-15T01:33:47.545Z,18.51
2022-11-15T01:34:47.513Z,18.50
2022-11-15T01:35:47.497Z,18.47
2022-11-15T01:36:47.490Z,18.48
2022-11-15T01:37:47.479Z,18.55
2022-11-15T01:38:47.480Z,18.53
2022-11-15T01:39:47.462Z,18.55
2022-11-15T01:40:47.446Z,18.58
2022-11-15T01:41:47.435Z,18.60
2022-11-15T01:42:47.434Z,18.60
2022-11-15T01:43:47.412Z,18.61
2022-11-15T01:44:47.405Z,18.61
2022-11-15T01:45:47.382Z,18.65
2022-11-15T01:46:47.369Z,18.68
2022-11-15T01:47:47.351Z,18.60
2022-11-15T01:48:47.350Z,18.61
2022-11-15T01:49:47.358Z,18.57
2022-11-15T01:50:47.334Z,18.51
2022-11-15T01:51:47.312Z,18.47
2022-11-15T01:52:47.308Z,18.40
2022-11-15T01:53:47.291Z,18.35
2022-11-15T01:54:47.303Z,18.32
2022-11-15T01:55:47.278Z,18.29
2022-11-15T01:56:47.262Z,18.24
2022-11-15T01:57:47.234Z,18.23
2022-11-15T01:58:47.235Z,18.19
2022-11-15T01:59:47.225Z,18.19
2022-11-15T02:00:47.267Z,18.13
2022-11-15T02:01:47.193Z,18.13
2022-11-15T02:02:47.183Z,18.16
2022-11-15T02:03:47.176Z,18.13
2022-11-15T02:04:47.178Z,18.10
2022-11-15T02:05:47.149Z,18.10
2022-11-15T02:06:47.183Z,18.13
2022-11-15T02:07:47.126Z,18.19
2022-11-15T02:08:47.119Z,18.18
2022-11-15T02:09:47.102Z,18.19
2022-11-15T02:10:47.096Z,18.19
2022-11-15T02:11:47.095Z,18.16
2022-11-15T02:12:47.067Z,18.15
2022-11-15T02:13:47.054Z,18.10
2022-11-15T02:14:47.045Z,18.07
2022-11-15T02:15:47.035Z,18.05
2022-11-15T02:16:47.047Z,18.04
2022-11-15T02:17:47.011Z,17.98
2022-11-15T02:18:47.006Z,18.01
2022-11-15T02:19:46.988Z,17.95
2022-11-15T02:20:46.983Z,17.96
2022-11-15T02:21:46.966Z,17.93
2022-11-15T02:22:46.977Z,17.92
2022-11-15T02:23:46.944Z,17.92
2022-11-15T02:24:46.946Z,17.95
2022-11-15T02:25:46.921Z,17.96
2022-11-15T02:26:46.928Z,17.98
2022-11-15T02:27:46.902Z,17.96
2022-11-15T02:28:46.916Z,17.98
2022-11-15T02:29:46.877Z,17.98
2022-11-15T02:30:46.859Z,17.96
2022-11-15T02:31:46.854Z,17.96
2022-11-15T02:32:46.840Z,17.96
2022-11-15T02:33:46.829Z,17.93
2022-11-15T02:34:46.827Z,17.93
2022-11-15T02:35:46.802Z,17.92
2022-11-15T02:36:46.795Z,17.92
2022-11-15T02:37:46.781Z,17.93
2022-11-15T02:38:46.766Z,17.92
2022-11-15T02:39:46.742Z,17.90
2022-11-15T02:40:46.776Z,17.92
2022-11-15T02:41:46.739Z,17.92
2022-11-15T02:42:46.720Z,17.89
2022-11-15T02:43:46.708Z,17.87
2022-11-15T02:44:46.708Z,17.89
2022-11-15T02:45:46.701Z,17.90
2022-11-15T02:46:46.679Z,17.93
2022-11-15T02:47:46.666Z,17.93
2022-11-15T02:48:46.654Z,17.98
2022-11-15T02:49:46.636Z,17.98
2022-11-15T02:50:46.636Z,18.05
2022-11-15T02:51:46.626Z,18.05
2022-11-15T02:52:46.607Z,18.07
2022-11-15T02:53:46.586Z,18.13
2022-11-15T02:54:46.582Z,18.12
2022-11-15T02:55:46.568Z,18.13
2022-11-15T02:56:46.588Z,18.18
2022-11-15T02:57:46.538Z,18.16
2022-11-15T02:58:46.541Z,18.18
2022-11-15T02:59:46.518Z,18.18
2022-11-15T03:00:46.569Z,18.21
2022-11-15T03:01:46.502Z,18.23
2022-11-15T03:02:46.507Z,18.13
2022-11-15T03:03:46.469Z,18.15
2022-11-15T03:04:46.462Z,18.16
2022-11-15T03:05:46.456Z,18.07
2022-11-15T03:06:46.481Z,18.10
2022-11-15T03:07:46.443Z,18.04
2022-11-15T03:08:46.421Z,18.07
2022-11-15T03:09:46.408Z,17.95
2022-11-15T03:10:46.398Z,17.95
2022-11-15T03:11:46.383Z,17.90
2022-11-15T03:12:46.369Z,17.90
2022-11-15T03:13:46.376Z,17.87
2022-11-15T03:14:46.349Z,17.84
2022-11-15T03:15:46.337Z,17.82
2022-11-15T03:16:46.326Z,17.96
2022-11-15T03:17:46.309Z,17.92
2022-11-15T03:18:46.305Z,18.07
2022-11-15T03:19:46.301Z,18.10
2022-11-15T03:20:46.283Z,18.13
2022-11-15T03:21:46.259Z,18.21
2022-11-15T03:22:46.247Z,18.13
2022-11-15T03:23:46.241Z,18.13
2022-11-15T03:24:46.244Z,18.19
2022-11-15T03:25:46.224Z,18.24
2022-11-15T03:26:46.210Z,18.23
2022-11-15T03:27:46.194Z,18.21
2022-11-15T03:28:46.193Z,18.24
2022-11-15T03:29:46.182Z,18.32
2022-11-15T03:30:46.152Z,18.35
2022-11-15T03:31:50.013Z,18.42
2022-11-15T03:32:47.145Z,18.43
2022-11-15T03:33:46.121Z,18.45
2022-11-15T03:34:46.138Z,18.51
2022-11-15T03:35:46.097Z,18.61
2022-11-15T03:36:46.095Z,18.65
2022-11-15T03:37:46.111Z,18.68
2022-11-15T03:38:46.063Z,18.66
2022-11-15T03:39:46.050Z,18.76
2022-11-15T03:40:46.062Z,18.88
2022-11-15T03:41:46.030Z,18.85
2022-11-15T03:42:46.020Z,18.90
2022-11-15T03:43:45.998Z,18.95
2022-11-15T03:44:46.003Z,18.92
2022-11-15T03:45:45.989Z,19.00
2022-11-15T03:46:45.970Z,19.07
2022-11-15T03:47:45.959Z,19.09
2022-11-15T03:48:45.952Z,19.16
2022-11-15T03:49:45.931Z,19.12
2022-11-15T03:50:45.949Z,19.02
2022-11-15T03:51:45.913Z,18.95
2022-11-15T03:52:45.920Z,18.92
2022-11-15T03:53:45.889Z,18.86
2022-11-15T03:54:45.871Z,18.78
2022-11-15T03:55:45.879Z,18.86
2022-11-15T03:56:45.854Z,18.92
2022-11-15T03:57:45.848Z,18.90
2022-11-15T03:58:45.835Z,19.00
2022-11-15T03:59:45.817Z,19.02
2022-11-15T04:00:45.890Z,19.14
2022-11-15T04:01:45.794Z,19.17
2022-11-15T04:02:45.785Z,19.16
2022-11-15T04:03:45.771Z,19.09
2022-11-15T04:04:45.759Z,19.10
2022-11-15T04:05:45.774Z,19.03
2022-11-15T04:06:45.790Z,19.12
2022-11-15T04:07:45.723Z,18.98
2022-11-15T04:08:45.714Z,18.93
2022-11-15T04:09:45.698Z,18.90
2022-11-15T04:10:45.693Z,18.88
2022-11-15T04:11:45.687Z,19.00
2022-11-15T04:12:45.669Z,18.90
2022-11-15T04:13:45.659Z,18.86
2022-11-15T04:14:45.645Z,18.85
2022-11-15T04:15:45.620Z,18.68
2022-11-15T04:16:45.615Z,18.75
2022-11-15T04:17:45.621Z,18.61
2022-11-15T04:18:45.582Z,18.57
2022-11-15T04:19:45.577Z,18.48
2022-11-15T04:20:45.584Z,18.39
2022-11-15T04:21:45.552Z,18.40
2022-11-15T04:22:45.547Z,18.23
2022-11-15T04:23:45.547Z,18.19
2022-11-15T04:24:45.514Z,18.12
2022-11-15T04:25:45.507Z,18.05
2022-11-15T04:26:45.507Z,18.02
2022-11-15T04:27:45.487Z,18.13
2022-11-15T04:28:45.496Z,18.07
2022-11-15T04:29:45.472Z,18.15
2022-11-15T04:30:45.454Z,18.01
2022-11-15T04:31:45.444Z,18.10
2022-11-15T04:32:45.436Z,17.96
2022-11-15T04:33:45.417Z,17.92
2022-11-15T04:34:45.433Z,17.92
2022-11-15T04:35:45.393Z,17.92
2022-11-15T04:36:45.387Z,17.96
2022-11-15T04:37:49.319Z,18.01
2022-11-15T04:38:45.356Z,18.01
2022-11-15T04:39:45.355Z,17.99
2022-11-15T04:40:45.343Z,18.08
2022-11-15T04:41:45.317Z,18.19
2022-11-15T04:42:45.310Z,18.13
2022-11-15T04:43:45.299Z,18.21
2022-11-15T04:44:45.308Z,18.24
2022-11-15T04:45:45.271Z,18.29
2022-11-15T04:46:45.268Z,18.35
2022-11-15T04:47:45.248Z,18.42
2022-11-15T04:48:45.239Z,18.50
2022-11-15T04:49:45.243Z,18.51
2022-11-15T04:50:45.218Z,18.70
2022-11-15T04:51:45.208Z,18.73
2022-11-15T04:52:45.199Z,18.78
2022-11-15T04:53:45.180Z,18.85
2022-11-15T04:54:45.180Z,18.98
2022-11-15T04:55:45.163Z,19.07
2022-11-15T04:56:45.151Z,19.05
2022-11-15T04:57:45.139Z,19.17
2022-11-15T04:58:45.119Z,19.12
2022-11-15T04:59:45.119Z,19.14
2022-11-15T05:00:45.123Z,19.14
2022-11-15T05:01:45.454Z,19.16
2022-11-15T05:02:45.067Z,19.26
2022-11-15T05:03:45.073Z,19.32
2022-11-15T05:04:45.054Z,19.42
2022-11-15T05:05:45.060Z,19.33
2022-11-15T05:06:45.098Z,19.35
2022-11-15T05:07:45.024Z,19.39
2022-11-15T05:08:45.022Z,19.37
2022-11-15T05:09:44.996Z,19.37
2022-11-15T05:10:44.978Z,19.35
2022-11-15T05:11:44.994Z,19.41
2022-11-15T05:12:44.958Z,19.42
2022-11-15T05:13:44.950Z,19.50
2022-11-15T05:14:44.939Z,19.55
2022-11-15T05:15:44.937Z,19.57
2022-11-15T05:16:44.906Z,19.73
2022-11-15T05:17:44.905Z,19.77
2022-11-15T05:18:44.891Z,19.68
2022-11-15T05:19:44.883Z,19.73
2022-11-15T05:20:44.865Z,19.60
2022-11-15T05:21:44.891Z,19.71
2022-11-15T05:22:44.842Z,19.55
2022-11-15T05:23:44.830Z,19.50
2022-11-15T05:24:44.814Z,19.44
2022-11-15T05:25:44.804Z,19.39
2022-11-15T05:26:44.802Z,19.25
2022-11-15T05:27:44.781Z,19.14
2022-11-15T05:28:44.772Z,19.23
2022-11-15T05:29:44.758Z,19.09
2022-11-15T05:30:44.760Z,19.14
2022-11-15T05:31:44.757Z,19.09
2022-11-15T05:32:44.720Z,19.26
2022-11-15T05:33:44.707Z,19.26
2022-11-15T05:34:44.689Z,19.28
2022-11-15T05:35:44.680Z,19.35
2022-11-15T05:36:44.677Z,19.46
2022-11-15T05:37:44.672Z,19.58
2022-11-15T05:38:44.640Z,19.66
2022-11-15T05:39:44.634Z,19.84
2022-11-15T05:40:44.623Z,19.81
2022-11-15T05:41:44.623Z,19.90
2022-11-15T05:42:44.616Z,19.96
2022-11-15T05:43:44.595Z,20.23
2022-11-15T05:44:44.576Z,20.19
2022-11-15T05:45:44.574Z,20.26
2022-11-15T05:46:44.557Z,20.23
2022-11-15T05:47:44.565Z,20.34
2022-11-15T05:48:44.530Z,20.23
2022-11-15T05:49:44.522Z,20.07
2022-11-15T05:50:44.502Z,20.03
2022-11-15T05:51:44.493Z,19.96
2022-11-15T05:52:44.512Z,19.83
2022-11-15T05:53:44.482Z,19.73
2022-11-15T05:54:44.454Z,19.68
2022-11-15T05:55:44.454Z,19.66
2022-11-15T05:56:44.436Z,19.62
2022-11-15T05:57:44.465Z,19.58
2022-11-15T05:58:44.414Z,19.60
2022-11-15T05:59:44.427Z,19.66
2022-11-15T06:00:44.394Z,19.66
2022-11-15T06:01:44.454Z,19.69
2022-11-15T06:02:44.379Z,19.75
2022-11-15T06:03:44.360Z,19.75
2022-11-15T06:04:44.338Z,19.77
2022-11-15T06:05:44.335Z,19.68
2022-11-15T06:06:44.327Z,19.77
2022-11-15T06:07:44.317Z,19.84
2022-11-15T06:08:44.315Z,19.77
2022-11-15T06:09:44.281Z,19.77
2022-11-15T06:10:44.265Z,19.77
2022-11-15T06:11:44.266Z,19.77
2022-11-15T06:12:44.245Z,19.71
2022-11-15T06:13:44.255Z,19.79
2022-11-15T06:14:44.228Z,19.75
2022-11-15T06:15:44.242Z,19.77
2022-11-15T06:16:44.209Z,19.83
2022-11-15T06:17:44.203Z,19.84
2022-11-15T06:18:44.180Z,19.98
2022-11-15T06:19:44.179Z,20.13
2022-11-15T06:20:44.144Z,20.17
2022-11-15T06:21:44.145Z,20.26
2022-11-15T06:22:44.127Z,20.32
2022-11-15T06:23:44.119Z,20.34
2022-11-15T06:24:44.125Z,20.30
2022-11-15T06:25:44.097Z,20.28
2022-11-15T06:26:44.081Z,20.19
2022-11-15T06:27:44.077Z,20.17
2022-11-15T06:28:44.064Z,20.07
2022-11-15T06:29:44.047Z,20.03
2022-11-15T06:30:46.076Z,20.11
2022-11-15T06:31:44.029Z,20.13
2022-11-15T06:32:44.009Z,20.15
2022-11-15T06:33:44.013Z,20.09
2022-11-15T06:34:44.000Z,20.15
2022-11-15T06:35:44.007Z,20.25
2022-11-15T06:36:43.967Z,20.23
2022-11-15T06:37:43.958Z,20.25
2022-11-15T06:38:43.940Z,20.19
2022-11-15T06:39:43.933Z,20.15
2022-11-15T06:40:43.946Z,20.09
2022-11-15T06:41:43.907Z,20.03
2022-11-15T06:42:43.906Z,19.83
2022-11-15T06:43:43.882Z,19.79
2022-11-15T06:44:43.876Z,19.81
2022-11-15T06:45:43.866Z,19.73
2022-11-15T06:46:43.854Z,19.73
2022-11-15T06:47:43.843Z,19.75
2022-11-15T06:48:43.829Z,19.84
2022-11-15T06:49:43.815Z,19.84
2022-11-15T06:50:43.815Z,19.88
2022-11-15T06:51:43.798Z,19.92
2022-11-15T06:52:43.782Z,19.98
2022-11-15T06:53:43.759Z,20.01
2022-11-15T06:54:43.758Z,20.07
2022-11-15T06:55:43.775Z,20.17
2022-11-15T06:56:43.739Z,20.30
2022-11-15T06:57:43.721Z,20.28
2022-11-15T06:58:43.709Z,20.30
2022-11-15T06:59:43.697Z,20.38
2022-11-15T07:00:43.680Z,20.36
2022-11-15T07:01:43.750Z,20.42
2022-11-15T07:02:43.662Z,20.60
2022-11-15T07:03:43.661Z,20.87
2022-11-15T07:04:43.636Z,21.18
2022-11-15T07:05:43.638Z,21.71
2022-11-15T07:06:43.609Z,22.28
2022-11-15T07:07:43.609Z,22.77
2022-11-15T07:08:43.605Z,23.09
2022-11-15T07:09:43.584Z,23.27
2022-11-15T07:10:43.590Z,23.48
2022-11-15T07:11:43.552Z,23.64
2022-11-15T07:12:43.548Z,23.78
2022-11-15T07:13:43.536Z,24.14
2022-11-15T07:14:43.523Z,24.42
2022-11-15T07:15:43.508Z,24.58
2022-11-15T07:16:43.511Z,24.73
2022-11-15T07:17:43.493Z,25.00
2022-11-15T07:18:43.471Z,25.27
2022-11-15T07:19:43.465Z,25.61
2022-11-15T07:20:43.479Z,26.03
2022-11-15T07:21:43.438Z,26.65
2022-11-15T07:22:43.430Z,27.11
2022-11-15T07:23:43.416Z,27.77
2022-11-15T07:24:43.402Z,28.37
2022-11-15T07:25:43.422Z,29.04
2022-11-15T07:26:43.374Z,29.77
2022-11-15T07:27:43.381Z,30.60
2022-11-15T07:28:43.350Z,31.47
2022-11-15T07:29:43.339Z,31.95
2022-11-15T07:30:45.373Z,32.39
2022-11-15T07:31:43.341Z,32.92
2022-11-15T07:32:43.314Z,33.15
2022-11-15T07:33:43.294Z,33.90
2022-11-15T07:34:43.292Z,34.04
2022-11-15T07:35:43.284Z,34.54
2022-11-15T07:36:43.264Z,34.77
2022-11-15T07:37:43.245Z,35.09
2022-11-15T07:38:43.326Z,35.44
2022-11-15T07:39:43.226Z,35.81
2022-11-15T07:40:43.233Z,36.02
2022-11-15T07:41:43.215Z,36.21
2022-11-15T07:42:43.192Z,36.21
2022-11-15T07:43:43.184Z,36.36
2022-11-15T07:44:43.174Z,37.00
2022-11-15T07:45:43.160Z,37.17
2022-11-15T07:46:43.166Z,37.23
2022-11-15T07:47:43.145Z,37.07
2022-11-15T07:48:44.801Z,36.43
2022-11-15T07:49:43.106Z,36.36
2022-11-15T07:50:43.150Z,35.96
2022-11-15T07:51:43.082Z,35.90
2022-11-15T07:52:43.080Z,35.99
2022-11-15T07:53:43.054Z,36.08
2022-11-15T07:54:43.054Z,36.40
2022-11-15T07:55:43.052Z,36.49
2022-11-15T07:56:43.026Z,36.65
2022-11-15T07:57:43.017Z,36.55
2022-11-15T07:58:43.016Z,36.97
2022-11-15T07:59:42.996Z,37.87
2022-11-15T08:00:42.977Z,38.63
2022-11-15T08:01:43.109Z,39.88
2022-11-15T08:02:43.122Z,40.38
2022-11-15T08:03:42.947Z,41.05
2022-11-15T08:04:42.938Z,41.21
2022-11-15T08:05:42.941Z,41.09
2022-11-15T08:06:42.911Z,40.81
2022-11-15T08:07:42.903Z,40.22
2022-11-15T08:08:42.887Z,39.28
2022-11-15T08:09:42.878Z,37.47
2022-11-15T08:10:42.890Z,36.08
2022-11-15T08:11:42.869Z,35.09
2022-11-15T08:12:42.872Z,34.54
2022-11-15T08:13:42.835Z,33.96
2022-11-15T08:14:42.814Z,33.05
2022-11-15T08:15:42.805Z,32.92
2022-11-15T08:16:42.809Z,32.46
2022-11-15T08:17:42.778Z,31.99
2022-11-15T08:18:42.772Z,31.99
2022-11-15T08:19:42.758Z,31.26
2022-11-15T08:20:42.770Z,30.73
2022-11-15T08:21:42.740Z,30.58
2022-11-15T08:22:42.727Z,30.89
2022-11-15T08:23:42.711Z,30.98
2022-11-15T08:24:42.711Z,31.47
2022-11-15T08:25:42.709Z,31.37
2022-11-15T08:26:42.683Z,31.19
2022-11-15T08:27:42.662Z,31.66
2022-11-15T08:28:42.661Z,31.47
2022-11-15T08:29:42.639Z,31.33
2022-11-15T08:30:42.674Z,31.03
2022-11-15T08:31:42.640Z,30.71
2022-11-15T08:32:42.611Z,30.80
2022-11-15T08:33:42.601Z,30.84
2022-11-15T08:34:42.589Z,31.10
2022-11-15T08:35:42.591Z,31.44
2022-11-15T08:36:45.946Z,31.95
2022-11-15T08:37:42.552Z,31.99
2022-11-15T08:38:42.539Z,31.66
2022-11-15T08:39:42.520Z,31.78
2022-11-15T08:40:42.540Z,32.39
2022-11-15T08:41:42.506Z,32.64
2022-11-15T08:42:42.501Z,33.00
2022-11-15T08:43:42.482Z,33.18
2022-11-15T08:44:42.469Z,34.15
2022-11-15T08:45:42.452Z,36.24
2022-11-15T08:46:42.474Z,38.21
2022-11-15T08:47:42.445Z,39.73
2022-11-15T08:48:42.422Z,42.16
2022-11-15T08:49:42.422Z,43.78
2022-11-15T08:50:42.413Z,44.33
2022-11-15T08:51:42.383Z,45.98
2022-11-15T08:52:42.372Z,47.35
2022-11-15T08:53:42.363Z,47.01
2022-11-15T08:54:42.362Z,46.59
2022-11-15T08:55:42.354Z,46.80
2022-11-15T08:56:42.343Z,46.28
2022-11-15T08:57:42.316Z,48.06
2022-11-15T08:58:42.310Z,51.34
2022-11-15T08:59:42.293Z,53.57
2022-11-15T09:00:42.285Z,55.29
2022-11-15T09:01:42.347Z,57.84
2022-11-15T09:02:42.263Z,60.03
2022-11-15T09:03:42.260Z,62.03
2022-11-15T09:04:42.231Z,61.98
2022-11-15T09:05:42.241Z,60.33
2022-11-15T09:06:43.302Z,58.41
2022-11-15T09:07:42.204Z,58.33
2022-11-15T09:08:49.287Z,59.57
2022-11-15T09:09:43.185Z,60.82
2022-11-15T09:10:42.178Z,63.00
2022-11-15T09:11:42.154Z,67.51
2022-11-15T09:12:42.148Z,73.46
2022-11-15T09:13:42.134Z,75.51
2022-11-15T09:14:42.114Z,78.91
2022-11-15T09:15:42.126Z,80.65
2022-11-15T09:16:42.121Z,80.12
2022-11-15T09:17:42.093Z,80.42
2022-11-15T09:18:42.096Z,81.67
2022-11-15T09:19:42.065Z,83.62
2022-11-15T09:20:42.076Z,85.32
2022-11-15T09:21:42.038Z,84.89
2022-11-15T09:22:42.027Z,80.81
2022-11-15T09:23:42.012Z,76.40
2022-11-15T09:24:42.001Z,74.51
2022-11-15T09:25:42.012Z,77.32
2022-11-15T09:26:41.985Z,81.28
2022-11-15T09:27:41.965Z,83.71
2022-11-15T09:28:41.955Z,83.71
2022-11-15T09:29:41.948Z,81.83
2022-11-15T09:30:41.946Z,79.66
2022-11-15T09:31:41.918Z,79.44
2022-11-15T09:32:41.902Z,79.89
2022-11-15T09:33:41.900Z,80.58
2022-11-15T09:34:41.888Z,83.05
2022-11-15T09:35:41.927Z,89.03
2022-11-15T09:36:41.853Z,93.38
2022-11-15T09:37:41.856Z,94.93
2022-11-15T09:38:41.828Z,98.32
2022-11-15T09:39:41.827Z,98.84
2022-11-15T09:40:41.826Z,95.28
2022-11-15T09:41:41.797Z,86.02
2022-11-15T09:42:41.789Z,78.25
2022-11-15T09:43:41.778Z,76.61
2022-11-15T09:44:41.760Z,82.07
2022-11-15T09:45:41.775Z,86.02
2022-11-15T09:46:41.742Z,89.98
2022-11-15T09:47:41.739Z,92.66
2022-11-15T09:48:41.717Z,93.07
2022-11-15T09:49:41.723Z,96.68
2022-11-15T09:50:41.778Z,99.36
2022-11-15T09:51:41.683Z,100.19
2022-11-15T09:52:41.672Z,104.29
2022-11-15T09:54:30.470Z,111.05
2022-11-15T09:54:57.954Z,117.00
2022-11-15T09:55:42.640Z,122.99
2022-11-15T09:56:41.627Z,128.83
2022-11-15T09:57:41.620Z,131.86
2022-11-15T09:58:41.599Z,139.87
2022-11-15T09:59:41.585Z,148.13
2022-11-15T10:00:48.975Z,152.70
2022-11-15T10:01:42.618Z,152.98
2022-11-15T10:02:41.559Z,150.92
2022-11-15T10:03:41.539Z,148.91
2022-11-15T10:04:41.532Z,146.71
2022-11-15T10:05:41.535Z,147.87
2022-11-15T10:06:41.511Z,148.39
2022-11-15T10:07:41.497Z,150.78
2022-11-15T10:08:41.487Z,148.26
2022-11-15T10:09:41.485Z,146.83
2022-11-15T10:10:41.478Z,149.05
2022-11-15T10:11:41.471Z,154.38
2022-11-15T10:12:41.444Z,158.76
2022-11-15T10:13:41.434Z,160.27
2022-11-15T10:14:41.424Z,161.04
2022-11-15T10:15:41.410Z,162.44
2022-11-15T10:16:41.413Z,162.91
2022-11-15T10:17:41.404Z,164.35
2022-11-15T10:18:41.396Z,166.62
2022-11-15T10:19:41.380Z,167.29
2022-11-15T10:20:41.424Z,169.48
2022-11-15T10:21:41.345Z,169.99
2022-11-15T10:22:41.324Z,170.34
2022-11-15T10:23:41.310Z,173.15
2022-11-15T10:24:41.293Z,175.31
2022-11-15T10:25:41.473Z,176.42
2022-11-15T10:26:41.268Z,178.10
2022-11-15T10:27:41.262Z,180.20
2022-11-15T10:28:41.254Z,180.39
2022-11-15T10:29:41.246Z,177.91
2022-11-15T10:30:41.233Z,174.95
2022-11-15T10:31:41.234Z,174.40
2022-11-15T10:32:41.194Z,170.34
2022-11-15T10:33:41.203Z,171.91
2022-11-15T10:34:41.173Z,173.68
2022-11-15T10:35:41.181Z,174.95
2022-11-15T10:36:43.837Z,177.53
2022-11-15T10:37:42.144Z,178.67
2022-11-15T10:38:41.135Z,180.59
2022-11-15T10:39:41.122Z,182.74
2022-11-15T10:40:41.119Z,182.94
2022-11-15T10:41:41.103Z,183.74
2022-11-15T10:42:41.087Z,184.35
2022-11-15T10:43:41.086Z,184.35
2022-11-15T10:44:41.053Z,182.94
2022-11-15T10:45:41.067Z,179.05
2022-11-15T10:46:48.368Z,167.96
2022-11-15T10:47:42.031Z,165.31
2022-11-15T10:48:41.023Z,165.48
2022-11-15T10:49:41.008Z,160.12
2022-11-15T10:50:41.007Z,163.23
2022-11-15T10:51:40.987Z,164.67
2022-11-15T10:52:40.978Z,165.64
2022-11-15T10:53:40.961Z,166.96
2022-11-15T10:54:40.944Z,167.29
2022-11-15T10:55:41.037Z,167.62
2022-11-15T10:56:40.933Z,168.29
2022-11-15T10:57:40.915Z,165.31
2022-11-15T10:58:40.898Z,159.21
2022-11-15T10:59:40.897Z,152.29
2022-11-15T11:00:40.906Z,150.51
2022-11-15T11:01:40.913Z,149.18
2022-11-15T11:02:40.855Z,145.44
2022-11-15T11:03:40.867Z,144.07
2022-11-15T11:04:40.837Z,145.56
2022-11-15T11:05:42.764Z,147.74
2022-11-15T11:06:40.862Z,146.20
2022-11-15T11:07:40.803Z,148.39
2022-11-15T11:08:40.778Z,152.43
2022-11-15T11:09:40.839Z,156.40
2022-11-15T11:11:01.955Z,159.51
2022-11-15T11:11:41.749Z,160.88
2022-11-15T11:12:40.736Z,160.12
2022-11-15T11:13:40.747Z,162.28
2022-11-15T11:14:40.719Z,161.81
2022-11-15T11:15:40.717Z,157.71
2022-11-15T11:16:40.717Z,152.43
2022-11-15T11:17:40.678Z,149.71
2022-11-15T11:18:40.663Z,143.21
2022-11-15T11:19:40.660Z,142.48
2022-11-15T11:20:40.648Z,139.87
2022-11-15T11:21:40.660Z,140.93
2022-11-15T11:22:40.620Z,142.00
2022-11-15T11:23:40.611Z,140.69
2022-11-15T11:24:40.594Z,139.41
2022-11-15T11:25:40.599Z,140.81
2022-11-15T11:26:40.580Z,141.64
2022-11-15T11:27:40.556Z,146.07
2022-11-15T11:28:40.551Z,148.91
2022-11-15T11:29:40.539Z,148.39
2022-11-15T11:30:40.540Z,141.28
2022-11-15T11:31:40.530Z,141.88
2022-11-15T11:32:40.500Z,142.84
2022-11-15T11:33:40.491Z,142.24
2022-11-15T11:34:40.488Z,144.07
2022-11-15T11:35:40.487Z,147.09
2022-11-15T11:36:40.452Z,153.54
2022-11-15T11:37:40.440Z,157.42
2022-11-15T11:38:40.432Z,159.06
2022-11-15T11:39:40.425Z,163.54
2022-11-15T11:40:40.416Z,166.29
2022-11-15T11:41:40.418Z,171.03
2022-11-15T11:42:40.382Z,174.95
2022-11-15T11:43:40.383Z,177.16
2022-11-15T11:44:40.360Z,177.91
2022-11-15T11:45:43.442Z,181.76
2022-11-15T11:46:41.335Z,184.15
2022-11-15T11:47:40.322Z,184.15
2022-11-15T11:48:40.307Z,183.14
2022-11-15T11:49:40.302Z,180.59
2022-11-15T11:50:40.309Z,182.94
2022-11-15T11:51:40.284Z,184.75
2022-11-15T11:52:40.276Z,185.16
2022-11-15T11:53:40.264Z,185.36
2022-11-15T11:54:40.245Z,184.15
2022-11-15T11:55:40.229Z,184.35
2022-11-15T11:56:40.238Z,185.77
2022-11-15T11:57:40.205Z,187.02
2022-11-15T11:58:40.192Z,189.16
2022-11-15T11:59:40.191Z,194.39
2022-11-15T12:00:40.191Z,197.76
2022-11-15T12:01:40.258Z,200.77
2022-11-15T12:02:40.261Z,201.87
2022-11-15T12:03:40.145Z,203.24
2022-11-15T12:04:40.118Z,205.13
2022-11-15T12:05:40.130Z,207.57
2022-11-15T12:06:40.099Z,208.75
2022-11-15T12:07:40.086Z,209.55
2022-11-15T12:08:40.079Z,210.62
2022-11-15T12:09:40.062Z,210.62
2022-11-15T12:10:40.143Z,209.55
2022-11-15T12:11:40.035Z,207.57
2022-11-15T12:12:40.015Z,207.84
2022-11-15T12:13:40.024Z,205.77
2022-11-15T12:14:40.008Z,206.41
2022-11-15T12:15:40.001Z,205.64
2022-11-15T12:16:40.001Z,208.10
2022-11-15T12:17:39.997Z,206.67
2022-11-15T12:18:39.950Z,205.38
2022-11-15T12:19:39.949Z,205.64
2022-11-15T12:20:39.948Z,206.41
2022-11-15T12:21:39.940Z,204.62
2022-11-15T12:22:39.917Z,205.13
2022-11-15T12:23:39.904Z,205.13
2022-11-15T12:24:39.889Z,207.44
2022-11-15T12:25:39.897Z,206.28
2022-11-15T12:26:39.859Z,205.13
2022-11-15T12:27:39.860Z,202.49
2022-11-15T12:28:48.754Z,201.50
2022-11-15T12:29:40.828Z,203.61
2022-11-15T12:30:39.807Z,204.87
2022-11-15T12:31:39.829Z,204.75
2022-11-15T12:32:39.788Z,204.87
2022-11-15T12:33:39.786Z,201.13
2022-11-15T12:34:39.770Z,184.35
2022-11-15T12:35:39.767Z,173.86
2022-11-15T12:36:39.740Z,169.31
2022-11-15T12:37:39.741Z,167.12
2022-11-15T12:38:39.715Z,170.34
2022-11-15T12:39:39.752Z,172.26
2022-11-15T12:40:39.741Z,172.43
2022-11-15T12:41:39.748Z,168.46
2022-11-15T12:42:39.674Z,167.62
2022-11-15T12:43:39.712Z,167.62
2022-11-15T12:44:39.657Z,169.14
2022-11-15T12:45:39.692Z,172.61
2022-11-15T12:46:39.636Z,175.13